Senyomaru — JI3557 — position and weather

sailwx.info

Track history (hours):
 
Tides and Currents Weather Stations Pressure Air Temp Water Temp Dewpoint Dewpoint Depression Visibility Wind Speed Wind Dir Waves Ship Positions

Senyomaru

Last reported at 2015-May-06 08:33 UTC. Time now 2015-May-25 15:26 UTC.
Position N 34°35' E 134°53'.
Warning: this ship's position is 19 days out of date.

Length 69 m; draft 4 m.

Type: Tanker. MMSI: 431300188.

Date/timePositionNaut miles runAvg speedWind from/ knotsBaromVisibWave heightAir tempDewpointWater temp
2015-May-06 08:33N 34°35' E 134°53'10 9.8
2015-May-06 07:34N 34°36' E 135°05'1211.5
2015-May-06 06:33N 34°34' E 135°19'6 5.5
2015-May-06 05:31N 34°33' E 135°26'0 0.0
2015-May-06 04:34N 34°33' E 135°26'0 0.0
2015-May-06 03:33N 34°33' E 135°26'0 0.0
2015-May-06 02:33N 34°33' E 135°26'0 0.0
2015-May-06 01:33N 34°33' E 135°26'0 0.0
2015-May-06 00:33N 34°33' E 135°26'0 0.0
2015-May-05 23:33N 34°33' E 135°26'0 0.0
2015-May-05 22:32N 34°33' E 135°26'2 2.3
2015-May-05 21:32N 34°34' E 135°23'0 0.0
2015-May-05 20:26N 34°34' E 135°23'0 0.0
2015-May-05 19:26N 34°34' E 135°23'0 0.0
2015-May-05 18:32N 34°34' E 135°23'0 0.0
2015-May-05 15:32N 34°34' E 135°23'0 0.0
2015-May-05 14:14N 34°34' E 135°23'0 0.0
2015-May-05 12:32N 34°34' E 135°23'0 0.1
2015-May-05 11:26N 34°34' E 135°23'0 0.0
2015-May-05 10:32N 34°34' E 135°23'0 0.0
2015-May-05 09:32N 34°34' E 135°23'0 0.0
2015-May-05 08:26N 34°34' E 135°23'0 0.0
2015-May-05 07:32N 34°34' E 135°23'0 0.0
2015-May-05 05:26N 34°34' E 135°23'0 0.0
2015-May-05 04:14N 34°34' E 135°23'0 0.0
2015-May-05 03:26N 34°34' E 135°23'0 0.0
2015-May-05 02:20N 34°34' E 135°23'0 0.0
2015-May-05 01:32N 34°34' E 135°23'0 0.0
2015-May-04 22:26N 34°34' E 135°23'0 0.0
2015-May-04 21:32N 34°34' E 135°23'0 0.0
2015-May-04 20:26N 34°34' E 135°23'0 0.0
2015-May-04 15:26N 34°34' E 135°23'0 0.0
2015-May-04 14:32N 34°34' E 135°23'0 0.0
2015-May-04 12:21N 34°34' E 135°23'7 8.4
2015-May-04 11:33N 34°34' E 135°15'1211.4
2015-May-04 10:32N 34°37' E 135°01'  
2015-Apr-28 06:20N 34°09' E 134°45'1513.1
2015-Apr-28 05:13N 33°58' E 134°56'23610.4
2015-Apr-27 06:33N 35°03' E 139°31'1111.3
2015-Apr-27 05:33N 35°08' E 139°43'1110.7
2015-Apr-27 04:33N 35°19' E 139°43'1010.3
2015-Apr-27 03:33N 35°28' E 139°49'9 8.9
2015-Apr-27 02:33N 35°28' E 140°00'0 0.0
2015-Apr-27 01:33N 35°28' E 140°00'0 0.0
2015-Apr-27 00:33N 35°28' E 140°00'3 2.9
2015-Apr-26 23:33N 35°29' E 139°57'3 2.4
2015-Apr-26 22:31N 35°29' E 139°54'0 0.0
2015-Apr-26 21:28N 35°29' E 139°54'0 0.1
2015-Apr-26 20:31N 35°29' E 139°54'0 0.0
2015-Apr-26 19:19N 35°29' E 139°54'0 0.0
2015-Apr-26 18:28N 35°29' E 139°54'0 0.0
2015-Apr-26 17:28N 35°29' E 139°54'0 0.0
2015-Apr-26 16:31N 35°29' E 139°54'0 0.0
2015-Apr-26 15:28N 35°29' E 139°54'0 0.0
2015-Apr-26 14:31N 35°29' E 139°54'0 0.0
2015-Apr-26 13:28N 35°29' E 139°54'0 0.0
2015-Apr-26 12:31N 35°29' E 139°54'0 0.0
2015-Apr-26 11:28N 35°29' E 139°54'0 0.1
2015-Apr-26 10:31N 35°29' E 139°54'0 0.0
2015-Apr-26 09:31N 35°29' E 139°54'  
Track history (hours):
 
Tides and Currents Weather Stations Pressure Air Temp Water Temp Dewpoint Dewpoint Depression Visibility Wind Speed Wind Dir Waves Ship Positions

Senyomaru

Last reported at 2015-May-06 08:33 UTC. Time now 2015-May-25 15:26 UTC.
Position N 34°35' E 134°53'.
Warning: this ship's position is 19 days out of date.

Length 69 m; draft 4 m.

Type: Tanker. MMSI: 431300188.

Date/timePositionNaut miles runAvg speedWind from/ knotsBaromVisibWave heightAir tempDewpointWater temp
2015-May-06 08:33N 34°35' E 134°53'10 9.8
2015-May-06 07:34N 34°36' E 135°05'1211.5
2015-May-06 06:33N 34°34' E 135°19'6 5.5
2015-May-06 05:31N 34°33' E 135°26'0 0.0
2015-May-06 04:34N 34°33' E 135°26'0 0.0
2015-May-06 03:33N 34°33' E 135°26'0 0.0
2015-May-06 02:33N 34°33' E 135°26'0 0.0
2015-May-06 01:33N 34°33' E 135°26'0 0.0
2015-May-06 00:33N 34°33' E 135°26'0 0.0
2015-May-05 23:33N 34°33' E 135°26'0 0.0
2015-May-05 22:32N 34°33' E 135°26'2 2.3
2015-May-05 21:32N 34°34' E 135°23'0 0.0
2015-May-05 20:26N 34°34' E 135°23'0 0.0
2015-May-05 19:26N 34°34' E 135°23'0 0.0
2015-May-05 18:32N 34°34' E 135°23'0 0.0
2015-May-05 15:32N 34°34' E 135°23'0 0.0
2015-May-05 14:14N 34°34' E 135°23'0 0.0
2015-May-05 12:32N 34°34' E 135°23'0 0.1
2015-May-05 11:26N 34°34' E 135°23'0 0.0
2015-May-05 10:32N 34°34' E 135°23'0 0.0
2015-May-05 09:32N 34°34' E 135°23'0 0.0
2015-May-05 08:26N 34°34' E 135°23'0 0.0
2015-May-05 07:32N 34°34' E 135°23'0 0.0
2015-May-05 05:26N 34°34' E 135°23'0 0.0
2015-May-05 04:14N 34°34' E 135°23'0 0.0
2015-May-05 03:26N 34°34' E 135°23'0 0.0
2015-May-05 02:20N 34°34' E 135°23'0 0.0
2015-May-05 01:32N 34°34' E 135°23'0 0.0
2015-May-04 22:26N 34°34' E 135°23'0 0.0
2015-May-04 21:32N 34°34' E 135°23'0 0.0
2015-May-04 20:26N 34°34' E 135°23'0 0.0
2015-May-04 15:26N 34°34' E 135°23'0 0.0
2015-May-04 14:32N 34°34' E 135°23'0 0.0
2015-May-04 12:21N 34°34' E 135°23'7 8.4
2015-May-04 11:33N 34°34' E 135°15'1211.4
2015-May-04 10:32N 34°37' E 135°01'  
2015-Apr-28 06:20N 34°09' E 134°45'1513.1
2015-Apr-28 05:13N 33°58' E 134°56'23610.4
2015-Apr-27 06:33N 35°03' E 139°31'1111.3
2015-Apr-27 05:33N 35°08' E 139°43'1110.7
2015-Apr-27 04:33N 35°19' E 139°43'1010.3
2015-Apr-27 03:33N 35°28' E 139°49'9 8.9
2015-Apr-27 02:33N 35°28' E 140°00'0 0.0
2015-Apr-27 01:33N 35°28' E 140°00'0 0.0
2015-Apr-27 00:33N 35°28' E 140°00'3 2.9
2015-Apr-26 23:33N 35°29' E 139°57'3 2.4
2015-Apr-26 22:31N 35°29' E 139°54'0 0.0
2015-Apr-26 21:28N 35°29' E 139°54'0 0.1
2015-Apr-26 20:31N 35°29' E 139°54'0 0.0
2015-Apr-26 19:19N 35°29' E 139°54'0 0.0
2015-Apr-26 18:28N 35°29' E 139°54'0 0.0
2015-Apr-26 17:28N 35°29' E 139°54'0 0.0
2015-Apr-26 16:31N 35°29' E 139°54'0 0.0
2015-Apr-26 15:28N 35°29' E 139°54'0 0.0
2015-Apr-26 14:31N 35°29' E 139°54'0 0.0
2015-Apr-26 13:28N 35°29' E 139°54'0 0.0
2015-Apr-26 12:31N 35°29' E 139°54'0 0.0
2015-Apr-26 11:28N 35°29' E 139°54'0 0.1
2015-Apr-26 10:31N 35°29' E 139°54'0 0.0
2015-Apr-26 09:31N 35°29' E 139°54'  

Dump ship's entire track history